Perry, Arkansas
Current Conditions -  °F | °C
As of 11:53 PM on Wednesday 26 Nov 2014 (Local Time) from KRUE Reporting Station
Clear Clear  
Wind Chill: 36°   Ceiling: Unl
Heat Index: 41°   Visibility: 10mi
Dew Point: 26°   Wind: 8mph
Humidity: 55%   Direction: 310°NW
Pressure: 30.31"   Gusts: NA
Location:  35.05°N, 92.79°W
Report Text: KRUE 270553Z AUTO 31007KT 10SM CLR 05/M03 A3031 RMK AO2 SLP263 T00501033 10106 20050 401501028 51030
Loading
Personal Weather Stations






























Interactive Weather Map New forecast layout! Learn more

10-Day Weather Forecast

Advertisements
Track Severe Weather on mobile